Date,TemperatureHighF,TemperatureAvgF,TemperatureLowF,DewpointHighF,DewpointAvgF,DewpointLowF,HumidityHigh,HumidityAvg,HumidityLow,PressureMaxIn,PressureMinIn,WindSpeedMaxMPH,WindSpeedAvgMPH,GustSpeedMaxMPH,PrecipitationSumIn
2013-11-1,52.6,43.7,39.0,41.9,38.5,35.9,92,82,62,29.98,29.53,16,3,18,0.01
2013-11-2,55.4,41.5,31.5,38.5,33.8,29.2,92,76,44,30.12,29.98,9,1,9,0.00
2013-11-3,56.2,46.9,36.2,38.4,34.7,31.1,82,63,47,30.00,29.64,25,4,25,0.00
2013-11-4,49.8,41.6,29.8,40.3,34.2,26.9,92,76,50,30.15,29.68,14,1,14,0.03
2013-11-5,38.2,32.3,28.4,31.5,29.3,26.1,96,89,67,30.21,30.06,10,0,10,0.00
2013-11-6,33.4,29.0,22.1,30.0,27.1,20.6,96,93,85,30.25,30.13,7,0,7,0.40
2013-11-7,36.6,28.8,19.1,29.9,24.9,17.4,97,86,70,30.42,30.22,9,1,9,0.05
2013-11-8,51.8,41.0,26.2,43.2,34.1,23.4,90,77,68,30.22,29.62,23,3,23,0.01
2013-11-9,48.1,40.2,29.3,36.6,32.5,24.8,88,74,52,30.35,29.80,16,3,16,0.00
2013-11-10,48.7,34.7,20.3,34.7,28.2,18.2,95,78,55,30.39,30.09,12,1,13,0.00
2013-11-11,39.2,20.4,8.9,34.8,14.0,5.3,89,76,65,30.85,30.11,13,3,14,0.00
2013-11-12,33.0,19.6,4.4,16.0,10.4,1.4,92,69,46,30.91,30.48,10,1,10,0.00
2013-11-13,61.3,40.6,25.0,37.3,28.5,15.8,77,63,40,30.48,29.90,14,2,14,0.00
2013-11-14,56.2,40.8,28.9,42.9,34.7,27.4,94,80,55,29.91,29.82,13,1,13,0.00
2013-11-15,56.1,39.8,25.0,43.0,33.5,23.8,98,80,58,29.85,29.51,17,2,17,0.00
2013-11-16,54.6,44.3,37.2,46.9,39.4,33.6,98,83,64,29.51,29.20,11,1,11,0.00
2013-11-17,47.3,40.8,32.9,39.5,36.2,29.3,96,84,72,29.99,29.34,15,2,15,0.00
2013-11-18,46.7,34.3,24.9,32.2,28.0,22.4,92,79,54,30.23,29.99,8,1,8,0.00
2013-11-19,57.4,45.2,32.1,36.6,31.0,26.9,86,60,43,30.14,29.73,22,5,22,0.00
2013-11-20,51.9,44.2,31.2,36.3,32.2,28.1,90,64,45,30.03,29.70,22,3,22,0.00
2013-11-21,31.6,22.6,16.5,28.8,16.9,10.2,90,79,67,30.68,30.03,17,5,17,0.00
2013-11-22,31.8,17.9,4.4,15.8,9.9,0.7,86,72,43,30.76,30.59,13,2,13,0.00
2013-11-23,18.5,11.1,3.8,8.5,3.0,-0.4,83,70,48,30.96,30.75,9,1,9,0.00
2013-11-24,38.4,24.9,11.5,24.7,15.2,3.1,74,66,54,30.75,30.07,20,5,20,0.00
2013-11-25,40.5,31.6,24.3,29.2,24.8,19.9,87,76,57,30.21,30.01,14,2,14,0.00
2013-11-26,30.4,22.1,10.8,23.6,11.8,5.0,81,65,48,30.47,30.20,17,4,17,0.00
2013-11-27,31.0,19.2,6.1,19.0,10.9,2.8,88,71,52,30.48,30.00,19,2,19,0.00
2013-11-28,28.4,22.5,13.8,19.6,15.9,10.7,88,76,62,30.51,30.11,13,2,13,0.00
2013-11-29,38.8,25.9,15.0,25.1,18.4,9.7,82,74,57,30.51,30.09,19,4,19,0.00
2013-11-30,48.1,32.9,20.6,32.8,25.7,18.4,94,76,51,30.20,30.06,8,1,8,0.00